createdAt,value
2024-01-18T00:02:31.192Z,9.09
2024-01-18T00:05:16.694Z,9.07
2024-01-18T00:08:02.392Z,9.01
2024-01-18T00:10:48.188Z,9.07
2024-01-18T00:13:33.856Z,9.10
2024-01-18T00:16:19.432Z,9.09
2024-01-18T00:19:04.939Z,9.13
2024-01-18T00:21:50.365Z,9.13
2024-01-18T00:24:35.955Z,9.14
2024-01-18T00:27:21.508Z,9.10
2024-01-18T00:30:07.612Z,9.10
2024-01-18T00:32:53.467Z,9.06
2024-01-18T00:35:38.865Z,9.02
2024-01-18T00:38:24.431Z,9.01
2024-01-18T00:41:10.084Z,9.00
2024-01-18T00:43:55.622Z,8.98
2024-01-18T00:46:41.079Z,9.01
2024-01-18T00:49:26.791Z,8.97
2024-01-18T00:52:12.767Z,8.96
2024-01-18T00:54:58.702Z,8.94
2024-01-18T00:57:44.261Z,8.93
2024-01-18T01:00:29.950Z,8.91
2024-01-18T01:03:15.652Z,8.87
2024-01-18T01:06:01.148Z,8.82
2024-01-18T01:08:47.133Z,8.82
2024-01-18T01:11:32.539Z,8.81
2024-01-18T01:14:17.979Z,8.81
2024-01-18T01:17:03.767Z,8.81
2024-01-18T01:19:49.506Z,8.83
2024-01-18T01:22:35.240Z,8.81
2024-01-18T01:25:21.038Z,8.81
2024-01-18T01:28:06.822Z,8.82
2024-01-18T01:30:52.639Z,8.80
2024-01-18T01:33:38.219Z,8.75
2024-01-18T01:36:24.152Z,8.71
2024-01-18T01:39:09.524Z,8.70
2024-01-18T01:41:55.149Z,8.72
2024-01-18T01:44:40.796Z,8.70
2024-01-18T01:47:26.363Z,8.70
2024-01-18T01:50:12.165Z,8.69
2024-01-18T01:52:57.655Z,8.68
2024-01-18T01:55:44.567Z,8.66
2024-01-18T01:58:30.151Z,8.66
2024-01-18T02:01:15.958Z,8.66
2024-01-18T02:04:01.639Z,8.67
2024-01-18T02:06:51.680Z,8.63
2024-01-18T02:09:37.997Z,8.61
2024-01-18T02:12:26.392Z,8.57
2024-01-18T02:15:12.574Z,8.58
2024-01-18T02:17:58.403Z,8.56
2024-01-18T02:20:44.712Z,8.58
2024-01-18T02:23:33.743Z,8.58
2024-01-18T02:26:19.597Z,8.56
2024-01-18T02:29:05.081Z,8.56
2024-01-18T02:31:50.693Z,8.55
2024-01-18T02:34:41.283Z,8.53
2024-01-18T02:37:26.709Z,8.47
2024-01-18T02:40:12.694Z,8.45
2024-01-18T02:42:58.512Z,8.40
2024-01-18T02:45:44.146Z,8.30
2024-01-18T02:48:29.975Z,8.24
2024-01-18T02:51:15.408Z,8.21
2024-01-18T02:54:00.912Z,8.20
2024-01-18T02:56:46.314Z,8.19
2024-01-18T02:59:31.938Z,8.21
2024-01-18T03:02:17.378Z,8.22
2024-01-18T03:05:02.994Z,8.23
2024-01-18T03:07:48.899Z,8.24
2024-01-18T03:10:34.585Z,8.23
2024-01-18T03:13:20.301Z,8.23
2024-01-18T03:16:05.923Z,8.21
2024-01-18T03:18:51.490Z,8.22
2024-01-18T03:21:37.132Z,8.21
2024-01-18T03:24:22.602Z,8.22
2024-01-18T03:27:07.916Z,8.20
2024-01-18T03:29:53.354Z,8.17
2024-01-18T03:32:38.878Z,8.18
2024-01-18T03:35:25.515Z,8.17
2024-01-18T03:38:11.496Z,8.18
2024-01-18T03:40:56.971Z,8.17
2024-01-18T03:43:42.628Z,8.17
2024-01-18T03:46:28.016Z,8.16
2024-01-18T03:49:13.779Z,8.15
2024-01-18T03:51:59.346Z,8.12
2024-01-18T03:54:45.631Z,8.09
2024-01-18T03:57:31.398Z,8.09
2024-01-18T04:00:16.959Z,8.08
2024-01-18T04:03:02.741Z,8.09
2024-01-18T04:05:48.400Z,8.12
2024-01-18T04:08:34.291Z,8.11
2024-01-18T04:11:20.377Z,8.11
2024-01-18T04:14:06.011Z,8.12
2024-01-18T04:16:51.538Z,8.12
2024-01-18T04:19:37.318Z,8.10
2024-01-18T04:22:24.295Z,8.09
2024-01-18T04:25:09.969Z,8.11
2024-01-18T04:27:55.565Z,8.12
2024-01-18T04:30:41.490Z,8.07
2024-01-18T04:33:27.353Z,8.12
2024-01-18T04:36:12.898Z,8.14
2024-01-18T04:38:58.539Z,8.14
2024-01-18T04:41:44.124Z,8.14
2024-01-18T04:44:29.683Z,8.13
2024-01-18T04:47:15.523Z,8.11
2024-01-18T04:50:01.253Z,8.08
2024-01-18T04:52:46.694Z,8.08
2024-01-18T04:55:32.402Z,8.08
2024-01-18T04:58:18.293Z,8.08
2024-01-18T05:01:04.276Z,8.07
2024-01-18T05:03:49.713Z,8.07
2024-01-18T05:06:35.717Z,8.06
2024-01-18T05:09:21.203Z,8.06
2024-01-18T05:12:09.889Z,8.07
2024-01-18T05:14:56.780Z,8.06
2024-01-18T05:17:45.252Z,8.06
2024-01-18T05:20:31.107Z,8.03
2024-01-18T05:23:16.722Z,8.04
2024-01-18T05:26:02.260Z,8.06
2024-01-18T05:28:47.827Z,8.06
2024-01-18T05:31:33.535Z,8.07
2024-01-18T05:34:19.189Z,8.05
2024-01-18T05:37:05.466Z,8.03
2024-01-18T05:39:51.699Z,8.00
2024-01-18T05:42:37.471Z,8.03
2024-01-18T05:45:22.979Z,8.01
2024-01-18T05:48:08.540Z,7.98
2024-01-18T05:50:53.936Z,7.95
2024-01-18T05:53:40.166Z,7.91
2024-01-18T05:56:25.921Z,7.86
2024-01-18T05:59:11.427Z,7.80
2024-01-18T06:01:57.364Z,7.76
2024-01-18T06:04:42.963Z,7.70
2024-01-18T06:07:28.976Z,7.68
2024-01-18T06:10:14.870Z,7.64
2024-01-18T06:13:00.921Z,7.61
2024-01-18T06:15:46.894Z,7.61
2024-01-18T06:18:32.609Z,7.62
2024-01-18T06:21:18.242Z,7.61
2024-01-18T06:24:04.026Z,7.60
2024-01-18T06:26:49.967Z,7.58
2024-01-18T06:29:36.518Z,7.54
2024-01-18T06:32:22.343Z,7.52
2024-01-18T06:35:07.873Z,7.50
2024-01-18T06:37:53.646Z,7.47
2024-01-18T06:40:41.918Z,7.44
2024-01-18T06:43:29.873Z,7.37
2024-01-18T06:46:18.817Z,7.32
2024-01-18T06:49:04.947Z,7.30
2024-01-18T06:51:50.674Z,7.28
2024-01-18T06:54:36.419Z,7.25
2024-01-18T06:57:22.018Z,7.21
2024-01-18T07:00:08.333Z,7.21
2024-01-18T07:02:54.781Z,7.21
2024-01-18T07:05:40.494Z,7.22
2024-01-18T07:08:25.973Z,7.22
2024-01-18T07:11:11.889Z,7.21
2024-01-18T07:13:58.024Z,7.21
2024-01-18T07:16:43.519Z,7.22
2024-01-18T07:19:29.242Z,7.22
2024-01-18T07:22:14.779Z,7.22
2024-01-18T07:25:00.300Z,7.24
2024-01-18T07:27:45.806Z,7.25
2024-01-18T07:30:31.315Z,7.26
2024-01-18T07:33:18.073Z,7.25
2024-01-18T07:36:04.299Z,7.28
2024-01-18T07:38:50.234Z,7.31
2024-01-18T07:41:36.004Z,7.31
2024-01-18T07:44:22.060Z,7.33
2024-01-18T07:47:11.105Z,7.34
2024-01-18T07:49:56.633Z,7.38
2024-01-18T07:52:42.468Z,7.41
2024-01-18T07:55:27.993Z,7.42
2024-01-18T07:58:14.917Z,7.44
2024-01-18T08:01:01.382Z,7.44
2024-01-18T08:03:47.274Z,7.46
2024-01-18T08:06:33.627Z,7.47
2024-01-18T08:09:19.789Z,7.46
2024-01-18T08:12:06.358Z,7.47
2024-01-18T08:14:51.848Z,7.46
2024-01-18T08:17:37.420Z,7.49
2024-01-18T08:20:22.744Z,7.48
2024-01-18T08:23:08.391Z,7.47
2024-01-18T08:25:53.732Z,7.47
2024-01-18T08:28:39.288Z,7.49
2024-01-18T08:31:24.885Z,7.50
2024-01-18T08:34:10.347Z,7.51
2024-01-18T08:36:55.813Z,7.50
2024-01-18T08:39:41.267Z,7.51
2024-01-18T08:42:27.194Z,7.53
2024-01-18T08:45:13.441Z,7.53
2024-01-18T08:47:59.200Z,7.55
2024-01-18T08:50:45.163Z,7.58
2024-01-18T08:53:32.147Z,7.58
2024-01-18T08:56:22.554Z,7.60
2024-01-18T08:59:12.723Z,7.62
2024-01-18T09:02:04.225Z,7.65
2024-01-18T09:04:55.432Z,7.71
2024-01-18T09:07:41.477Z,7.79
2024-01-18T09:10:26.865Z,7.84
2024-01-18T09:13:12.487Z,7.88
2024-01-18T09:15:58.396Z,7.91
2024-01-18T09:18:56.331Z,7.95
2024-01-18T09:21:49.783Z,7.98
2024-01-18T09:24:35.343Z,7.85
2024-01-18T09:27:21.212Z,7.59
2024-01-18T09:30:10.068Z,7.26
2024-01-18T09:32:56.056Z,6.88
2024-01-18T09:35:42.582Z,6.53
2024-01-18T09:38:30.827Z,6.31
2024-01-18T09:41:20.837Z,6.08
2024-01-18T09:44:08.308Z,5.78
2024-01-18T09:46:58.336Z,5.53
2024-01-18T09:49:45.848Z,5.34
2024-01-18T09:52:31.269Z,5.13
2024-01-18T09:55:16.827Z,4.94
2024-01-18T09:58:03.815Z,4.84
2024-01-18T10:00:59.306Z,4.73
2024-01-18T10:03:45.233Z,4.64
2024-01-18T10:06:31.376Z,4.56
2024-01-18T10:09:17.358Z,4.47
2024-01-18T10:12:03.029Z,4.39
2024-01-18T10:14:48.859Z,4.29
2024-01-18T10:17:34.459Z,4.25
2024-01-18T10:20:20.233Z,4.18
2024-01-18T10:23:05.947Z,4.15
2024-01-18T10:25:52.239Z,4.11
2024-01-18T10:28:38.047Z,4.08
2024-01-18T10:31:23.561Z,4.01
2024-01-18T10:34:09.622Z,3.95
2024-01-18T10:36:56.087Z,3.87
2024-01-18T10:39:43.457Z,3.82
2024-01-18T10:42:29.407Z,3.80
2024-01-18T10:45:15.041Z,3.76
2024-01-18T10:48:01.411Z,3.74
2024-01-18T10:50:48.028Z,3.70
2024-01-18T10:53:35.113Z,3.65
2024-01-18T10:56:24.233Z,3.62
2024-01-18T10:59:10.741Z,3.56
2024-01-18T11:02:00.478Z,3.50
2024-01-18T11:04:49.189Z,3.44
2024-01-18T11:07:40.573Z,3.33
2024-01-18T11:10:26.476Z,3.34
2024-01-18T11:13:13.209Z,3.33
2024-01-18T11:15:58.803Z,3.30
2024-01-18T11:18:51.061Z,3.23
2024-01-18T11:21:41.641Z,3.15
2024-01-18T11:24:27.482Z,3.02
2024-01-18T11:27:23.881Z,2.82
2024-01-18T11:30:14.667Z,2.65
2024-01-18T11:33:00.815Z,2.55
2024-01-18T11:35:46.536Z,2.45
2024-01-18T11:38:34.702Z,2.39
2024-01-18T11:41:24.212Z,2.35
2024-01-18T11:44:12.071Z,2.33
2024-01-18T11:46:58.809Z,2.31
2024-01-18T11:49:44.656Z,2.31
2024-01-18T11:52:33.463Z,2.28
2024-01-18T11:55:19.655Z,2.27
2024-01-18T11:58:05.507Z,2.21
2024-01-18T12:00:51.767Z,2.16
2024-01-18T12:03:37.578Z,2.09
2024-01-18T12:06:28.185Z,2.01
2024-01-18T12:09:14.022Z,1.94
2024-01-18T12:12:00.763Z,1.88
2024-01-18T12:14:48.730Z,1.83
2024-01-18T12:17:34.307Z,1.80
2024-01-18T12:20:20.979Z,1.74
2024-01-18T12:23:14.604Z,1.69
2024-01-18T12:26:00.628Z,1.67
2024-01-18T12:28:47.719Z,1.62
2024-01-18T12:31:35.317Z,1.58
2024-01-18T12:34:21.683Z,1.53
2024-01-18T12:37:07.132Z,1.50
2024-01-18T12:39:53.746Z,1.49
2024-01-18T12:42:39.873Z,1.46
2024-01-18T12:45:26.269Z,1.42
2024-01-18T12:48:12.630Z,1.43
2024-01-18T12:50:58.205Z,1.39
2024-01-18T12:53:44.342Z,1.36
2024-01-18T12:56:30.680Z,1.33
2024-01-18T12:59:16.094Z,1.33
2024-01-18T13:02:01.714Z,1.31
2024-01-18T13:04:50.232Z,1.28
2024-01-18T13:07:36.315Z,1.26
2024-01-18T13:10:23.714Z,1.22
2024-01-18T13:13:12.596Z,1.18
2024-01-18T13:15:59.473Z,1.12
2024-01-18T13:18:45.699Z,1.08
2024-01-18T13:21:31.396Z,1.06
2024-01-18T13:24:17.023Z,1.01
2024-01-18T13:27:06.256Z,0.98
2024-01-18T13:29:52.053Z,0.93
2024-01-18T13:32:37.640Z,0.87
2024-01-18T13:35:23.516Z,0.73
2024-01-18T13:38:10.342Z,0.60
2024-01-18T13:40:56.893Z,0.52
2024-01-18T13:43:44.223Z,0.44
2024-01-18T13:46:31.395Z,0.40
2024-01-18T13:49:17.073Z,0.35
2024-01-18T13:52:03.832Z,0.28
2024-01-18T13:54:49.896Z,0.25
2024-01-18T13:57:35.684Z,0.21
2024-01-18T14:00:21.547Z,0.18
2024-01-18T14:03:10.271Z,0.15
2024-01-18T14:05:57.052Z,0.10
2024-01-18T14:08:47.180Z,0.05
2024-01-18T14:11:35.047Z,-0.02
2024-01-18T14:14:20.988Z,-0.04
2024-01-18T14:17:08.278Z,-0.06
2024-01-18T14:19:56.917Z,-0.11
2024-01-18T14:22:44.551Z,-0.11
2024-01-18T14:25:29.871Z,-0.10
2024-01-18T14:28:15.485Z,-0.09
2024-01-18T14:31:02.452Z,-0.12
2024-01-18T14:33:49.032Z,-0.12
2024-01-18T14:36:34.962Z,-0.13
2024-01-18T14:39:20.757Z,-0.14
2024-01-18T14:42:06.947Z,-0.14
2024-01-18T14:44:52.577Z,-0.14
2024-01-18T14:47:38.189Z,-0.14
2024-01-18T14:50:23.628Z,-0.15
2024-01-18T14:53:10.265Z,-0.18
2024-01-18T14:55:56.733Z,-0.24
2024-01-18T14:58:44.578Z,-0.31
2024-01-18T15:01:33.210Z,-0.40
2024-01-18T15:04:19.051Z,-0.45
2024-01-18T15:07:05.148Z,-0.49
2024-01-18T15:09:51.006Z,-0.52
2024-01-18T15:12:37.112Z,-0.52
2024-01-18T15:15:22.579Z,-0.52
2024-01-18T15:18:09.718Z,-0.56
2024-01-18T15:20:55.508Z,-0.60
2024-01-18T15:23:41.662Z,-0.61
2024-01-18T15:26:27.162Z,-0.61
2024-01-18T15:29:13.032Z,-0.63
2024-01-18T15:31:58.851Z,-0.67
2024-01-18T15:34:44.474Z,-0.67
2024-01-18T15:37:30.426Z,-0.68
2024-01-18T15:40:17.497Z,-0.68
2024-01-18T15:43:03.196Z,-0.71
2024-01-18T15:45:48.972Z,-0.70
2024-01-18T15:48:37.108Z,-0.71
2024-01-18T15:51:24.325Z,-0.71
2024-01-18T15:54:09.767Z,-0.73
2024-01-18T15:56:55.100Z,-0.76
2024-01-18T15:59:40.738Z,-0.84
2024-01-18T16:02:26.800Z,-0.89
2024-01-18T16:05:12.552Z,-0.93
2024-01-18T16:07:58.514Z,-0.95
2024-01-18T16:10:44.087Z,-0.98
2024-01-18T16:13:31.066Z,-1.04
2024-01-18T16:16:16.897Z,-1.04
2024-01-18T16:19:02.413Z,-1.05
2024-01-18T16:21:48.749Z,-1.03
2024-01-18T16:24:34.655Z,-1.07
2024-01-18T16:27:20.432Z,-1.11
2024-01-18T16:30:13.117Z,-1.15
2024-01-18T16:33:05.546Z,-1.19
2024-01-18T16:35:51.446Z,-1.22
2024-01-18T16:38:36.927Z,-1.27
2024-01-18T16:41:22.646Z,-1.28
2024-01-18T16:44:08.953Z,-1.30
2024-01-18T16:46:54.565Z,-1.32
2024-01-18T16:49:40.473Z,-1.33
2024-01-18T16:52:26.439Z,-1.35
2024-01-18T16:55:12.286Z,-1.34
2024-01-18T16:57:58.002Z,-1.36
2024-01-18T17:00:43.542Z,-1.35
2024-01-18T17:03:29.169Z,-1.36
2024-01-18T17:06:16.712Z,-1.38
2024-01-18T17:09:02.834Z,-1.39
2024-01-18T17:11:48.775Z,-1.42
2024-01-18T17:14:34.449Z,-1.46
2024-01-18T17:17:20.307Z,-1.49
2024-01-18T17:20:06.083Z,-1.50
2024-01-18T17:22:51.813Z,-1.52
2024-01-18T17:25:37.518Z,-1.52
2024-01-18T17:28:23.028Z,-1.51
2024-01-18T17:31:09.419Z,-1.53
2024-01-18T17:33:55.179Z,-1.53
2024-01-18T17:36:40.982Z,-1.52
2024-01-18T17:39:27.685Z,-1.52
2024-01-18T17:42:13.514Z,-1.53
2024-01-18T17:44:59.197Z,-1.53
2024-01-18T17:47:45.952Z,-1.53
2024-01-18T17:50:34.684Z,-1.53
2024-01-18T17:53:20.066Z,-1.53
2024-01-18T17:56:05.719Z,-1.54
2024-01-18T17:58:51.421Z,-1.53
2024-01-18T18:01:37.150Z,-1.52
2024-01-18T18:04:22.811Z,-1.53
2024-01-18T18:07:09.790Z,-1.52
2024-01-18T18:09:56.264Z,-1.52
2024-01-18T18:12:42.879Z,-1.53
2024-01-18T18:15:31.658Z,-1.53
2024-01-18T18:18:20.157Z,-1.53
2024-01-18T18:21:05.849Z,-1.53
2024-01-18T18:23:52.039Z,-1.51
2024-01-18T18:26:37.669Z,-1.51
2024-01-18T18:29:23.218Z,-1.50
2024-01-18T18:32:08.754Z,-1.50
2024-01-18T18:34:54.199Z,-1.52
2024-01-18T18:37:39.861Z,-1.52
2024-01-18T18:40:26.756Z,-1.51
2024-01-18T18:43:12.394Z,-1.53
2024-01-18T18:45:58.521Z,-1.54
2024-01-18T18:48:43.981Z,-1.57
2024-01-18T18:51:29.485Z,-1.58
2024-01-18T18:54:14.929Z,-1.59
2024-01-18T18:57:00.529Z,-1.59
2024-01-18T18:59:49.752Z,-1.59
2024-01-18T19:02:38.552Z,-1.60
2024-01-18T19:05:24.253Z,-1.63
2024-01-18T19:08:11.008Z,-1.64
2024-01-18T19:10:56.545Z,-1.65
2024-01-18T19:13:42.515Z,-1.65
2024-01-18T19:16:28.751Z,-1.65
2024-01-18T19:19:14.528Z,-1.64
2024-01-18T19:22:01.559Z,-1.68
2024-01-18T19:24:47.151Z,-1.67
2024-01-18T19:27:32.766Z,-1.66
2024-01-18T19:30:18.236Z,-1.67
2024-01-18T19:33:04.349Z,-1.67
2024-01-18T19:35:50.155Z,-1.66
2024-01-18T19:38:35.844Z,-1.67
2024-01-18T19:41:22.872Z,-1.67
2024-01-18T19:44:08.793Z,-1.65
2024-01-18T19:46:54.347Z,-1.66
2024-01-18T19:49:41.480Z,-1.68
2024-01-18T19:52:28.527Z,-1.68
2024-01-18T19:55:14.339Z,-1.67
2024-01-18T19:58:00.042Z,-1.67
2024-01-18T20:00:45.951Z,-1.67
2024-01-18T20:03:31.371Z,-1.65
2024-01-18T20:06:16.945Z,-1.64
2024-01-18T20:09:03.963Z,-1.64
2024-01-18T20:11:52.049Z,-1.64
2024-01-18T20:14:38.789Z,-1.63
2024-01-18T20:17:24.718Z,-1.64
2024-01-18T20:20:10.788Z,-1.63
2024-01-18T20:22:56.338Z,-1.63
2024-01-18T20:25:41.848Z,-1.63
2024-01-18T20:28:28.588Z,-1.64
2024-01-18T20:31:15.534Z,-1.63
2024-01-18T20:34:01.661Z,-1.63
2024-01-18T20:36:46.925Z,-1.62
2024-01-18T20:39:35.046Z,-1.61
2024-01-18T20:42:21.106Z,-1.60
2024-01-18T20:45:07.432Z,-1.60
2024-01-18T20:47:53.138Z,-1.62
2024-01-18T20:50:38.742Z,-1.62
2024-01-18T20:53:25.244Z,-1.63
2024-01-18T20:56:10.992Z,-1.64
2024-01-18T20:58:57.179Z,-1.65
2024-01-18T21:01:43.697Z,-1.66
2024-01-18T21:04:30.427Z,-1.67
2024-01-18T21:07:17.044Z,-1.68
2024-01-18T21:10:02.785Z,-1.70
2024-01-18T21:12:49.001Z,-1.72
2024-01-18T21:15:34.533Z,-1.76
2024-01-18T21:18:20.116Z,-1.79
2024-01-18T21:21:06.384Z,-1.83
2024-01-18T21:23:52.598Z,-1.85
2024-01-18T21:26:37.962Z,-1.87
2024-01-18T21:29:23.465Z,-1.90
2024-01-18T21:32:09.115Z,-1.92
2024-01-18T21:34:54.678Z,-1.91
2024-01-18T21:37:41.038Z,-1.92
2024-01-18T21:40:27.981Z,-1.95
2024-01-18T21:43:13.644Z,-1.95
2024-01-18T21:45:59.517Z,-1.96
2024-01-18T21:48:45.969Z,-1.96
2024-01-18T21:51:32.178Z,-1.95
2024-01-18T21:54:17.915Z,-1.95
2024-01-18T21:57:03.826Z,-1.95
2024-01-18T21:59:50.199Z,-1.95
2024-01-18T22:02:38.452Z,-1.95
2024-01-18T22:05:27.397Z,-1.95
2024-01-18T22:08:13.283Z,-1.95
2024-01-18T22:10:59.218Z,-1.96
2024-01-18T22:13:44.973Z,-1.97
2024-01-18T22:16:30.863Z,-1.98
2024-01-18T22:19:29.322Z,-1.99
2024-01-18T22:22:23.107Z,-2.00
2024-01-18T22:25:09.499Z,-2.00
2024-01-18T22:27:55.191Z,-2.01
2024-01-18T22:30:40.729Z,-2.03
2024-01-18T22:33:26.172Z,-2.06
2024-01-18T22:36:11.912Z,-2.08
2024-01-18T22:38:58.555Z,-2.10
2024-01-18T22:41:44.278Z,-2.13
2024-01-18T22:44:30.033Z,-2.14
2024-01-18T22:47:15.952Z,-2.19
2024-01-18T22:50:01.928Z,-2.22
2024-01-18T22:52:47.400Z,-2.24
2024-01-18T22:55:34.148Z,-2.30
2024-01-18T22:58:19.952Z,-2.32
2024-01-18T23:01:07.154Z,-2.35
2024-01-18T23:03:52.950Z,-2.38
2024-01-18T23:06:38.838Z,-2.41
2024-01-18T23:09:24.385Z,-2.44
2024-01-18T23:12:09.977Z,-2.47
2024-01-18T23:14:55.376Z,-2.50
2024-01-18T23:17:41.049Z,-2.52
2024-01-18T23:20:26.595Z,-2.55
2024-01-18T23:23:12.083Z,-2.59
2024-01-18T23:26:00.295Z,-2.62
2024-01-18T23:28:46.296Z,-2.67
2024-01-18T23:31:32.004Z,-2.76
2024-01-18T23:34:17.555Z,-2.82
2024-01-18T23:37:03.183Z,-2.87
2024-01-18T23:39:48.759Z,-2.91
2024-01-18T23:42:34.393Z,-2.96
2024-01-18T23:45:19.886Z,-3.00
2024-01-18T23:48:06.273Z,-3.03
2024-01-18T23:50:52.204Z,-3.07
2024-01-18T23:53:38.117Z,-3.10
2024-01-18T23:56:23.821Z,-3.12
2024-01-18T23:59:09.269Z,-3.16
